Time;durP1;ratioP1;P1;durP2;ratioP2;P2;SDS_P1;SDS_P2;PMS_P1;PMS_P2;Temp;Humidity;BMP_temperature;BMP_pressure;BME280_temperature;BME280_humidity;BME280_pressure;Samples;Min_cycle;Max_cycle;Signal;HPM_P1;HPM_P2
2021/08/17 00:00:07;;;;;;;;;;;;;;;-145.93;100.00;63033.56;5115305;28;19931;-75
2021/08/17 00:02:33;;;;;;;;;;;;;;;-145.93;100.00;63033.56;5114800;28;20294;-75
2021/08/17 00:05:00;;;;;;;;;;;;;;;-145.93;100.00;63033.56;5115242;28;19931;-74
2021/08/17 00:07:26;;;;;;;;;;;;;;;-145.93;100.00;63033.56;5114647;28;19924;-75
2021/08/17 00:09:53;;;;;;;;;;;;;;;-145.93;100.00;63033.56;5115102;28;19928;-75
2021/08/17 00:12:21;;;;;;;;;;;;;;;-145.93;100.00;63033.56;5114626;28;20018;-74
2021/08/17 00:14:49;;;;;;;;;;;;;;;-145.93;100.00;63033.56;5114735;28;19967;-75
2021/08/17 00:17:16;;;;;;;;;;;;;;;-145.93;100.00;63033.56;5113881;28;20162;-75
2021/08/17 00:19:45;;;;;;;;;;;;;;;-145.93;100.00;63033.56;5114979;28;19924;-75
2021/08/17 00:22:12;;;;;;;;;;;;;;;-145.93;100.00;63033.56;5114577;28;20408;-75
2021/08/17 00:24:39;;;;;;;;;;;;;;;-145.93;100.00;63033.56;5114218;28;20367;-74
2021/08/17 00:27:05;;;;;;;;;;;;;;;-145.93;100.00;63033.56;5114921;28;19923;-75
2021/08/17 00:29:32;;;;;;;;;;;;;;;-145.93;100.00;63033.56;5114217;28;20400;-75
2021/08/17 00:32:00;;;;;;;;;;;;;;;-145.93;100.00;63033.56;5114980;28;19931;-75
2021/08/17 00:34:27;;;;;;;;;;;;;;;-145.93;100.00;63033.56;5114185;28;20378;-75
2021/08/17 00:36:53;;;;;;;;;;;;;;;-145.93;100.00;63033.56;5114634;28;19927;-75
2021/08/17 00:39:20;;;;;;;;;;;;;;;-145.93;100.00;63033.56;5113984;28;19931;-75
2021/08/17 00:41:47;;;;;;;;;;;;;;;-145.93;100.00;63033.56;5114465;28;19924;-75
2021/08/17 00:44:20;;;;;;;;;;;;;;;-145.93;100.00;63033.56;5114247;28;19930;-75
2021/08/17 00:46:47;;;;;;;;;;;;;;;-145.93;100.00;63033.56;5114545;28;19931;-75
2021/08/17 00:49:15;;;;;;;;;;;;;;;-145.93;100.00;63033.56;5114429;28;19935;-75
2021/08/17 00:51:42;;;;;;;;;;;;;;;-145.93;100.00;63033.56;5114096;28;19931;-75
2021/08/17 00:54:08;;;;;;;;;;;;;;;-145.93;100.00;63033.56;5113888;28;19923;-74
2021/08/17 00:56:35;;;;;;;;;;;;;;;-145.93;100.00;63033.56;5113970;28;19928;-75
2021/08/17 00:59:02;;;;;;;;;;;;;;;-145.93;100.00;63033.56;5114239;28;19923;-75
2021/08/17 01:01:29;;;;;;;;;;;;;;;-145.93;100.00;63033.56;5114292;28;19930;-75
2021/08/17 01:03:55;;;;;;;;;;;;;;;-145.93;100.00;63033.56;5114035;28;19923;-75
2021/08/17 01:06:23;;;;;;;;;;;;;;;-145.93;100.00;63033.56;5113533;28;19931;-75
2021/08/17 01:08:50;;;;;;;;;;;;;;;-145.93;100.00;63033.56;5114136;28;20302;-75
2021/08/17 01:11:17;;;;;;;;;;;;;;;-145.93;100.00;63033.56;5113825;28;19924;-75
2021/08/17 01:13:43;;;;;;;;;;;;;;;-145.93;100.00;63033.56;5113965;28;19928;-75
2021/08/17 01:16:10;;;;;;;;;;;;;;;-145.93;100.00;63033.56;5113927;28;19924;-75
2021/08/17 01:18:37;;;;;;;;;;;;;;;-145.93;100.00;63033.56;5113184;28;20289;-75
2021/08/17 01:21:08;;;;;;;;;;;;;;;-145.93;100.00;63033.56;5113436;28;19924;-75
2021/08/17 01:23:36;;;;;;;;;;;;;;;-145.93;100.00;63033.56;5113593;28;20285;-74
2021/08/17 01:26:04;;;;;;;;;;;;;;;-145.93;100.00;63033.56;5113303;28;19924;-74
2021/08/17 01:28:31;;;;;;;;;;;;;;;-145.93;100.00;63033.56;5113093;28;19931;-74
2021/08/17 01:31:01;;;;;;;;;;;;;;;-145.93;100.00;63033.56;5113249;28;19930;-75
2021/08/17 01:33:27;;;;;;;;;;;;;;;-145.93;100.00;63033.56;5113114;28;19924;-75
2021/08/17 01:35:54;;;;;;;;;;;;;;;-145.93;100.00;63033.56;5113280;28;19935;-75
2021/08/17 01:38:21;;;;;;;;;;;;;;;-145.93;100.00;63033.56;5113149;28;19924;-75
2021/08/17 01:40:47;;;;;;;;;;;;;;;-145.93;100.00;63033.56;5113551;28;19924;-75
2021/08/17 01:43:15;;;;;;;;;;;;;;;-145.93;100.00;63033.56;5113091;28;20385;-75
2021/08/17 01:45:42;;;;;;;;;;;;;;;-145.93;100.00;63033.56;5113490;28;20294;-75
2021/08/17 01:48:09;;;;;;;;;;;;;;;-145.93;100.00;63033.56;5113149;28;19924;-74
2021/08/17 01:50:36;;;;;;;;;;;;;;;-145.93;100.00;63033.56;5113075;28;19923;-75
2021/08/17 01:53:03;;;;;;;;;;;;;;;-145.93;100.00;63033.56;5113061;28;19924;-74
2021/08/17 01:55:29;;;;;;;;;;;;;;;-145.93;100.00;63033.56;5113111;28;19924;-75
2021/08/17 01:57:56;;;;;;;;;;;;;;;-145.93;100.00;63033.56;5112859;28;19937;-75
2021/08/17 02:00:24;;;;;;;;;;;;;;;-145.93;100.00;63033.56;5113066;28;19923;-75
2021/08/17 02:02:52;;;;;;;;;;;;;;;-145.93;100.00;63033.56;5112872;28;19924;-75
2021/08/17 02:05:21;;;;;;;;;;;;;;;-145.93;100.00;63033.56;5112633;28;19923;-75
2021/08/17 02:07:49;;;;;;;;;;;;;;;-145.93;100.00;63033.56;5112892;28;20362;-75
2021/08/17 02:10:16;;;;;;;;;;;;;;;-145.93;100.00;63033.56;5112651;28;19931;-75
2021/08/17 02:12:42;;;;;;;;;;;;;;;-145.93;100.00;63033.56;5113050;28;19930;-75
2021/08/17 02:15:09;;;;;;;;;;;;;;;-145.93;100.00;63033.56;5112873;28;20378;-75
2021/08/17 02:17:37;;;;;;;;;;;;;;;-145.93;100.00;63033.56;5112352;28;20382;-75
2021/08/17 02:20:04;;;;;;;;;;;;;;;-145.93;100.00;63033.56;5112754;28;19934;-75
2021/08/17 02:22:31;;;;;;;;;;;;;;;-145.93;100.00;63033.56;5112763;28;19923;-74
2021/08/17 02:24:58;;;;;;;;;;;;;;;-145.93;100.00;63033.56;5112744;28;19923;-75
2021/08/17 02:27:24;;;;;;;;;;;;;;;-145.93;100.00;63033.56;5112500;28;19928;-76
2021/08/17 02:29:51;;;;;;;;;;;;;;;-145.93;100.00;63033.56;5112880;28;19928;-75
2021/08/17 02:32:18;;;;;;;;;;;;;;;-145.93;100.00;63033.56;5112474;28;19931;-75
2021/08/17 02:34:46;;;;;;;;;;;;;;;-145.93;100.00;63033.56;5112967;28;19950;-75
2021/08/17 02:37:12;;;;;;;;;;;;;;;-145.93;100.00;63033.56;5112859;28;19931;-74
2021/08/17 02:39:39;;;;;;;;;;;;;;;-145.93;100.00;63033.56;5112449;28;19930;-75
2021/08/17 02:42:05;;;;;;;;;;;;;;;-145.93;100.00;63033.56;5116924;28;19924;-75
2021/08/17 02:44:32;;;;;;;;;;;;;;;-145.93;100.00;63033.56;5116375;28;19930;-75
2021/08/17 02:46:59;;;;;;;;;;;;;;;-145.93;100.00;63033.56;5116870;28;20294;-75
2021/08/17 02:49:25;;;;;;;;;;;;;;;-145.93;100.00;63033.56;5116175;28;19931;-75
2021/08/17 02:51:53;;;;;;;;;;;;;;;-145.93;100.00;63033.56;5116478;28;20305;-75
2021/08/17 02:54:20;;;;;;;;;;;;;;;-145.93;100.00;63033.56;5116372;28;20286;-75
2021/08/17 02:56:46;;;;;;;;;;;;;;;-145.93;100.00;63033.56;5116690;28;19923;-75
2021/08/17 02:59:13;;;;;;;;;;;;;;;-145.93;100.00;63033.56;5116475;28;19932;-75
2021/08/17 03:01:39;;;;;;;;;;;;;;;-145.93;100.00;63033.56;5116365;28;19930;-75
2021/08/17 03:04:06;;;;;;;;;;;;;;;-145.93;100.00;63033.56;5116037;28;20309;-75
2021/08/17 03:06:33;;;;;;;;;;;;;;;-145.93;100.00;63033.56;5116180;28;19931;-75
2021/08/17 03:09:01;;;;;;;;;;;;;;;-145.93;100.00;63033.56;5116110;28;19931;-75
2021/08/17 03:11:27;;;;;;;;;;;;;;;-145.93;100.00;63033.56;5115702;28;19924;-75
2021/08/17 03:13:57;;;;;;;;;;;;;;;-145.93;100.00;63033.56;5116239;28;19930;-75
2021/08/17 03:16:23;;;;;;;;;;;;;;;-145.93;100.00;63033.56;5115733;28;20400;-75
2021/08/17 03:18:50;;;;;;;;;;;;;;;-145.93;100.00;63033.56;5116079;28;19930;-75
2021/08/17 03:21:16;;;;;;;;;;;;;;;-145.93;100.00;63033.56;5116079;28;19924;-75
2021/08/17 03:23:43;;;;;;;;;;;;;;;-145.93;100.00;63033.56;5115751;28;20397;-75
2021/08/17 03:26:11;;;;;;;;;;;;;;;-145.93;100.00;63033.56;5115656;28;19930;-74
2021/08/17 03:28:38;;;;;;;;;;;;;;;-145.93;100.00;63033.56;5115524;28;20305;-75
2021/08/17 03:31:06;;;;;;;;;;;;;;;-145.93;100.00;63033.56;5115971;28;19931;-75
2021/08/17 03:33:32;;;;;;;;;;;;;;;-145.93;100.00;63033.56;5115207;28;19923;-75
2021/08/17 03:35:59;;;;;;;;;;;;;;;-145.93;100.00;63033.56;5115601;28;19930;-75
2021/08/17 03:38:26;;;;;;;;;;;;;;;-145.93;100.00;63033.56;5115219;28;19924;-75
2021/08/17 03:40:53;;;;;;;;;;;;;;;-145.93;100.00;63033.56;5116270;28;19958;-75
2021/08/17 03:43:21;;;;;;;;;;;;;;;-145.93;100.00;63033.56;5115451;28;19924;-75
2021/08/17 03:45:48;;;;;;;;;;;;;;;-145.93;100.00;63033.56;5115465;28;19924;-75
2021/08/17 03:48:14;;;;;;;;;;;;;;;-145.93;100.00;63033.56;5115289;28;20374;-74
2021/08/17 03:50:41;;;;;;;;;;;;;;;-145.93;100.00;63033.56;5115737;28;19924;-74
2021/08/17 03:53:07;;;;;;;;;;;;;;;-145.93;100.00;63033.56;5113956;28;20378;-74
2021/08/17 03:55:34;;;;;;;;;;;;;;;-145.93;100.00;63033.56;5115210;28;19924;-75
2021/08/17 03:58:01;;;;;;;;;;;;;;;-145.93;100.00;63033.56;5115035;28;19924;-74
2021/08/17 04:00:32;;;;;;;;;;;;;;;-145.93;100.00;63033.56;5115130;28;19923;-75
2021/08/17 04:02:58;;;;;;;;;;;;;;;-145.93;100.00;63033.56;5115281;28;19924;-75
2021/08/17 04:05:25;;;;;;;;;;;;;;;-145.93;100.00;63033.56;5114724;28;20005;-74
2021/08/17 04:07:52;;;;;;;;;;;;;;;-145.93;100.00;63033.56;5114865;28;19928;-75
2021/08/17 04:10:19;;;;;;;;;;;;;;;-145.93;100.00;63033.56;5114524;28;20370;-75
2021/08/17 04:12:46;;;;;;;;;;;;;;;-145.93;100.00;63033.56;5114796;28;19923;-75
2021/08/17 04:15:12;;;;;;;;;;;;;;;-145.93;100.00;63033.56;5115081;28;19923;-75
2021/08/17 04:17:41;;;;;;;;;;;;;;;-145.93;100.00;63033.56;5114735;28;20028;-75
2021/08/17 04:20:09;;;;;;;;;;;;;;;-145.93;100.00;63033.56;5114613;28;20400;-75
2021/08/17 04:22:35;;;;;;;;;;;;;;;-145.93;100.00;63033.56;5114648;28;19927;-75
2021/08/17 04:25:02;;;;;;;;;;;;;;;-145.93;100.00;63033.56;5115561;28;19939;-75
2021/08/17 04:27:29;;;;;;;;;;;;;;;-145.93;100.00;63033.56;5114623;28;19923;-75
2021/08/17 04:29:55;;;;;;;;;;;;;;;-145.93;100.00;63033.56;5114839;28;19946;-75
2021/08/17 04:32:22;;;;;;;;;;;;;;;-145.93;100.00;63033.56;5114170;28;19924;-75
2021/08/17 04:34:50;;;;;;;;;;;;;;;-145.93;100.00;63033.56;5114605;28;19924;-74
2021/08/17 04:37:17;;;;;;;;;;;;;;;-145.93;100.00;63033.56;5114100;28;19923;-75
2021/08/17 04:39:43;;;;;;;;;;;;;;;-145.93;100.00;63033.56;5114504;28;19924;-75
2021/08/17 04:42:10;;;;;;;;;;;;;;;-145.93;100.00;63033.56;5114305;28;19923;-75
2021/08/17 04:44:36;;;;;;;;;;;;;;;-145.93;100.00;63033.56;5114134;28;19968;-75
2021/08/17 04:47:03;;;;;;;;;;;;;;;-145.93;100.00;63033.56;5114082;28;20491;-74
2021/08/17 04:49:31;;;;;;;;;;;;;;;-145.93;100.00;63033.56;5113898;28;20424;-74
2021/08/17 04:51:59;;;;;;;;;;;;;;;-145.93;100.00;63033.56;5114315;28;19923;-75
2021/08/17 04:54:26;;;;;;;;;;;;;;;-145.93;100.00;63033.56;5113733;28;19928;-75
2021/08/17 04:56:52;;;;;;;;;;;;;;;-145.93;100.00;63033.56;5113951;28;19924;-75
2021/08/17 04:59:19;;;;;;;;;;;;;;;-145.93;100.00;63033.56;5114168;28;19946;-75
2021/08/17 05:01:45;;;;;;;;;;;;;;;-145.93;100.00;63033.56;5113836;28;19930;-74
2021/08/17 05:04:12;;;;;;;;;;;;;;;-145.93;100.00;63033.56;5113680;28;19923;-74
2021/08/17 05:06:39;;;;;;;;;;;;;;;-145.93;100.00;63033.56;5113596;28;19924;-74
2021/08/17 05:09:07;;;;;;;;;;;;;;;-145.93;100.00;63033.56;5113703;28;20374;-74
2021/08/17 05:11:33;;;;;;;;;;;;;;;-145.93;100.00;63033.56;5113501;28;20378;-74
2021/08/17 05:14:00;;;;;;;;;;;;;;;-145.93;100.00;63033.56;5114012;28;19931;-74
2021/08/17 05:16:27;;;;;;;;;;;;;;;-145.93;100.00;63033.56;5113620;28;19927;-75
2021/08/17 05:18:53;;;;;;;;;;;;;;;-145.93;100.00;63033.56;5113838;28;19931;-75
2021/08/17 05:21:21;;;;;;;;;;;;;;;-145.93;100.00;63033.56;5113653;28;19924;-74
2021/08/17 05:23:48;;;;;;;;;;;;;;;-145.93;100.00;63033.56;5113860;28;19976;-75
2021/08/17 05:26:16;;;;;;;;;;;;;;;-145.93;100.00;63033.56;5113034;28;19924;-75
2021/08/17 05:28:43;;;;;;;;;;;;;;;-145.93;100.00;63033.56;5113389;28;19938;-75
2021/08/17 05:31:10;;;;;;;;;;;;;;;-145.93;100.00;63033.56;5113667;28;20029;-75
2021/08/17 05:33:36;;;;;;;;;;;;;;;-145.93;100.00;63033.56;5113352;28;19935;-75
2021/08/17 05:36:03;;;;;;;;;;;;;;;-145.93;100.00;63033.56;5113185;28;20400;-75
2021/08/17 05:38:30;;;;;;;;;;;;;;;-145.93;100.00;63033.56;5113146;28;19924;-75
2021/08/17 05:40:56;;;;;;;;;;;;;;;-145.93;100.00;63033.56;5113211;28;19937;-75
2021/08/17 05:43:24;;;;;;;;;;;;;;;-145.93;100.00;63033.56;5113237;28;19928;-75
2021/08/17 05:45:51;;;;;;;;;;;;;;;-145.93;100.00;63033.56;5113122;28;19930;-75
2021/08/17 05:48:17;;;;;;;;;;;;;;;-145.93;100.00;63033.56;5112854;28;20305;-75
2021/08/17 05:50:44;;;;;;;;;;;;;;;-145.93;100.00;63033.56;5113239;28;19924;-75
2021/08/17 05:53:10;;;;;;;;;;;;;;;-145.93;100.00;63033.56;5113092;28;19924;-75
2021/08/17 05:55:37;;;;;;;;;;;;;;;-145.93;100.00;63033.56;5112826;28;19934;-75
2021/08/17 05:58:04;;;;;;;;;;;;;;;-145.93;100.00;63033.56;5113026;28;19931;-75
2021/08/17 06:00:32;;;;;;;;;;;;;;;-145.93;100.00;63033.56;5112673;28;19924;-75
2021/08/17 06:03:00;;;;;;;;;;;;;;;-145.93;100.00;63033.56;5113057;28;20299;-75
2021/08/17 06:05:26;;;;;;;;;;;;;;;-145.93;100.00;63033.56;5112936;28;19981;-75
2021/08/17 06:07:53;;;;;;;;;;;;;;;-145.93;100.00;63033.56;5113229;28;19963;-75
2021/08/17 06:10:20;;;;;;;;;;;;;;;-145.93;100.00;63033.56;5112955;28;19924;-75
2021/08/17 06:12:47;;;;;;;;;;;;;;;-145.93;100.00;63033.56;5113039;28;19988;-75
2021/08/17 06:15:15;;;;;;;;;;;;;;;-145.93;100.00;63033.56;5114138;28;20378;-75
2021/08/17 06:17:43;;;;;;;;;;;;;;;-145.93;100.00;63033.56;5117340;28;19924;-75
2021/08/17 06:20:10;;;;;;;;;;;;;;;-145.93;100.00;63033.56;5117011;28;20297;-75
2021/08/17 06:22:37;;;;;;;;;;;;;;;-145.93;100.00;63033.56;5116640;28;20283;-75
2021/08/17 06:25:04;;;;;;;;;;;;;;;-145.93;100.00;63033.56;5117031;28;20081;-75
2021/08/17 06:27:31;;;;;;;;;;;;;;;-145.93;100.00;63033.56;5116857;28;19923;-75
2021/08/17 06:29:58;;;;;;;;;;;;;;;-145.93;100.00;63033.56;5116858;28;20271;-75
2021/08/17 06:32:24;;;;;;;;;;;;;;;-145.93;100.00;63033.56;5116820;28;19923;-76
2021/08/17 06:34:52;;;;;;;;;;;;;;;-145.93;100.00;63033.56;5117060;28;20369;-75
2021/08/17 06:37:19;;;;;;;;;;;;;;;-145.93;100.00;63033.56;5116761;28;19923;-76
2021/08/17 06:39:45;;;;;;;;;;;;;;;-145.93;100.00;63033.56;5116508;28;20295;-75
2021/08/17 06:42:12;;;;;;;;;;;;;;;-145.93;100.00;63033.56;5116468;28;19923;-75
2021/08/17 06:44:39;;;;;;;;;;;;;;;-145.93;100.00;63033.56;5116717;28;20293;-75
2021/08/17 06:47:06;;;;;;;;;;;;;;;-145.93;100.00;63033.56;5116927;28;19924;-75
2021/08/17 06:49:32;;;;;;;;;;;;;;;-145.93;100.00;63033.56;5116299;28;19931;-75
2021/08/17 06:52:00;;;;;;;;;;;;;;;-145.93;100.00;63033.56;5116463;28;19924;-75
2021/08/17 06:54:27;;;;;;;;;;;;;;;-145.93;100.00;63033.56;5116234;28;19936;-76
2021/08/17 06:56:53;;;;;;;;;;;;;;;-145.93;100.00;63033.56;5116708;28;19924;-75
2021/08/17 06:59:20;;;;;;;;;;;;;;;-145.93;100.00;63033.56;5116275;28;19924;-76
2021/08/17 07:01:47;;;;;;;;;;;;;;;-145.93;100.00;63033.56;5116597;28;19924;-75
2021/08/17 07:04:13;;;;;;;;;;;;;;;-145.93;100.00;63033.56;5116118;28;19923;-75
2021/08/17 07:06:40;;;;;;;;;;;;;;;-145.93;100.00;63033.56;5116525;28;19946;-75
2021/08/17 07:09:08;;;;;;;;;;;;;;;-145.93;100.00;63033.56;5116117;28;19924;-76
2021/08/17 07:11:34;;;;;;;;;;;;;;;-145.93;100.00;63033.56;5115762;28;19928;-75
2021/08/17 07:14:01;;;;;;;;;;;;;;;-145.93;100.00;63033.56;5116378;28;19931;-75
2021/08/17 07:16:28;;;;;;;;;;;;;;;-145.93;100.00;63033.56;5115740;28;20408;-75
2021/08/17 07:18:54;;;;;;;;;;;;;;;-145.93;100.00;63033.56;5116032;28;19947;-75
2021/08/17 07:21:21;;;;;;;;;;;;;;;-145.93;100.00;63033.56;5115958;28;19930;-75
2021/08/17 07:23:47;;;;;;;;;;;;;;;-145.93;100.00;63033.56;5115865;28;20394;-75
2021/08/17 07:26:17;;;;;;;;;;;;;;;-145.93;100.00;63033.56;5115510;28;19930;-76
2021/08/17 07:28:44;;;;;;;;;;;;;;;-145.93;100.00;63033.56;5116062;28;19930;-75
2021/08/17 07:31:10;;;;;;;;;;;;;;;-145.93;100.00;63033.56;5115553;28;19923;-75
2021/08/17 07:33:37;;;;;;;;;;;;;;;-145.93;100.00;63033.56;5115781;28;19938;-75
2021/08/17 07:36:04;;;;;;;;;;;;;;;-145.93;100.00;63033.56;5115630;28;19924;-75
2021/08/17 07:38:31;;;;;;;;;;;;;;;-145.93;100.00;63033.56;5115632;28;19924;-75
2021/08/17 07:40:57;;;;;;;;;;;;;;;-145.93;100.00;63033.56;5115377;28;20040;-75
2021/08/17 07:43:25;;;;;;;;;;;;;;;-145.93;100.00;63033.56;5115109;28;19931;-75
2021/08/17 07:45:52;;;;;;;;;;;;;;;-145.93;100.00;63033.56;5115422;28;20185;-75
2021/08/17 07:48:19;;;;;;;;;;;;;;;-145.93;100.00;63033.56;5115386;28;19923;-75
2021/08/17 07:50:45;;;;;;;;;;;;;;;-145.93;100.00;63033.56;5115257;28;20431;-75
2021/08/17 07:53:12;;;;;;;;;;;;;;;-145.93;100.00;63033.56;5115592;28;19931;-75
2021/08/17 07:55:38;;;;;;;;;;;;;;;-145.93;100.00;63033.56;5114835;28;20005;-75
2021/08/17 07:58:05;;;;;;;;;;;;;;;-145.93;100.00;63033.56;5115452;28;19924;-75
2021/08/17 08:00:33;;;;;;;;;;;;;;;-145.93;100.00;63033.56;5114823;28;20290;-75
2021/08/17 08:03:00;;;;;;;;;;;;;;;-145.93;100.00;63033.56;5115029;28;19924;-75
2021/08/17 08:05:26;;;;;;;;;;;;;;;-145.93;100.00;63033.56;5114682;28;20382;-75
2021/08/17 08:07:53;;;;;;;;;;;;;;;-145.93;100.00;63033.56;5115322;28;19924;-76
2021/08/17 08:10:19;;;;;;;;;;;;;;;-145.93;100.00;63033.56;5114654;28;19931;-75
2021/08/17 08:12:46;;;;;;;;;;;;;;;-145.93;100.00;63033.56;5115232;28;19924;-75
2021/08/17 08:15:13;;;;;;;;;;;;;;;-145.93;100.00;63033.56;5114875;28;19923;-76
2021/08/17 08:17:41;;;;;;;;;;;;;;;-145.93;100.00;63033.56;5114904;28;19923;-75
2021/08/17 08:20:08;;;;;;;;;;;;;;;-145.93;100.00;63033.56;5114455;28;19930;-75
2021/08/17 08:22:35;;;;;;;;;;;;;;;-145.93;100.00;63033.56;5114793;28;20306;-75
2021/08/17 08:25:02;;;;;;;;;;;;;;;-145.93;100.00;63033.56;5114483;28;20374;-75
2021/08/17 08:27:28;;;;;;;;;;;;;;;-145.93;100.00;63033.56;5114395;28;20306;-75
2021/08/17 08:29:55;;;;;;;;;;;;;;;-145.93;100.00;63033.56;5115182;28;19923;-75
2021/08/17 08:32:22;;;;;;;;;;;;;;;-145.93;100.00;63033.56;5114214;28;20385;-75
2021/08/17 08:34:50;;;;;;;;;;;;;;;-145.93;100.00;63033.56;5114696;28;19934;-75
2021/08/17 08:37:16;;;;;;;;;;;;;;;-145.93;100.00;63033.56;5113826;28;20404;-75
2021/08/17 08:39:43;;;;;;;;;;;;;;;-145.93;100.00;63033.56;5114086;28;20392;-75
2021/08/17 08:42:11;;;;;;;;;;;;;;;-145.93;100.00;63033.56;5114290;28;19931;-75
2021/08/17 08:44:38;;;;;;;;;;;;;;;-145.93;100.00;63033.56;5114261;28;19928;-75
2021/08/17 08:47:05;;;;;;;;;;;;;;;-145.93;100.00;63033.56;5114566;28;19930;-75
2021/08/17 08:49:32;;;;;;;;;;;;;;;-145.93;100.00;63033.56;5114275;28;19931;-75
2021/08/17 08:52:01;;;;;;;;;;;;;;;-145.93;100.00;63033.56;5114465;28;20053;-76
2021/08/17 08:54:28;;;;;;;;;;;;;;;-145.93;100.00;63033.56;5113983;28;19934;-76
2021/08/17 08:56:55;;;;;;;;;;;;;;;-145.93;100.00;63033.56;5114069;28;19923;-76
2021/08/17 08:59:21;;;;;;;;;;;;;;;-145.93;100.00;63033.56;5113992;28;19923;-76
2021/08/17 09:01:49;;;;;;;;;;;;;;;-145.93;100.00;63033.56;5113949;28;19934;-76
2021/08/17 09:04:17;;;;;;;;;;;;;;;-145.93;100.00;63033.56;5113597;28;19924;-75
2021/08/17 09:06:51;;;;;;;;;;;;;;;-145.93;100.00;63033.56;5113883;28;20270;-76
2021/08/17 09:09:19;;;;;;;;;;;;;;;-145.93;100.00;63033.56;5113503;28;20388;-75
2021/08/17 09:11:47;;;;;;;;;;;;;;;-145.93;100.00;63033.56;5114452;28;19928;-75
2021/08/17 09:14:18;;;;;;;;;;;;;;;-145.93;100.00;63033.56;5113993;28;19945;-76
2021/08/17 09:16:45;;;;;;;;;;;;;;;-145.93;100.00;63033.56;5113649;28;19924;-76
2021/08/17 09:19:36;;;;;;;;;;;;;;;-145.93;100.00;63033.56;5113528;28;19931;-76
2021/08/17 09:22:03;;;;;;;;;;;;;;;-145.93;100.00;63033.56;5092968;28;19923;-76
2021/08/17 09:24:32;;;;;;;;;;;;;;;-145.93;100.00;63033.56;5113428;28;19930;-75
2021/08/17 09:27:00;;;;;;;;;;;;;;;-145.93;100.00;63033.56;5113492;28;19927;-76
2021/08/17 09:29:36;;;;;;;;;;;;;;;-145.93;100.00;63033.56;5113199;28;19923;-76
2021/08/17 09:32:12;;;;;;;;;;;;;;;-145.93;100.00;63033.56;5113650;28;19923;-76
2021/08/17 09:34:38;;;;;;;;;;;;;;;-145.93;100.00;63033.56;5113405;28;19931;-75
2021/08/17 09:37:08;;;;;;;;;;;;;;;-145.93;100.00;63033.56;5113640;28;19924;-75
2021/08/17 09:39:39;;;;;;;;;;;;;;;-145.93;100.00;63033.56;5112992;28;20442;-76
2021/08/17 09:42:14;;;;;;;;;;;;;;;-145.93;100.00;63033.56;5113662;28;19923;-76
2021/08/17 09:44:41;;;;;;;;;;;;;;;-145.93;100.00;63033.56;5113106;28;19924;-75
2021/08/17 09:47:07;;;;;;;;;;;;;;;-145.93;100.00;63033.56;5113490;28;19924;-76
2021/08/17 09:49:34;;;;;;;;;;;;;;;-145.93;100.00;63033.56;5113151;28;19924;-76
2021/08/17 09:52:07;;;;;;;;;;;;;;;-145.93;100.00;63033.56;5113109;28;19924;-76
2021/08/17 09:54:37;;;;;;;;;;;;;;;-145.93;100.00;63033.56;5113087;28;19924;-76
2021/08/17 09:57:06;;;;;;;;;;;;;;;-145.93;100.00;63033.56;5113644;28;20277;-75
2021/08/17 09:59:34;;;;;;;;;;;;;;;-145.93;100.00;63033.56;5112706;28;19924;-76
2021/08/17 10:02:01;;;;;;;;;;;;;;;-145.93;100.00;63033.56;5113236;28;19923;-76
2021/08/17 10:04:28;;;;;;;;;;;;;;;-145.93;100.00;63033.56;5112511;28;20396;-76
2021/08/17 10:06:55;;;;;;;;;;;;;;;-145.93;100.00;63033.56;5112935;28;20298;-76
2021/08/17 10:09:23;;;;;;;;;;;;;;;-145.93;100.00;63033.56;5112993;28;19924;-76
2021/08/17 10:11:49;;;;;;;;;;;;;;;-145.93;100.00;63033.56;5112886;28;20400;-75
2021/08/17 10:14:17;;;;;;;;;;;;;;;-145.93;100.00;63033.56;5112941;28;19931;-75
2021/08/17 10:16:44;;;;;;;;;;;;;;;-145.93;100.00;63033.56;5112688;28;19937;-75
2021/08/17 10:19:12;;;;;;;;;;;;;;;-145.93;100.00;63033.56;5112761;28;19924;-75
2021/08/17 10:21:39;;;;;;;;;;;;;;;-145.93;100.00;63033.56;5112400;28;20297;-75
2021/08/17 10:24:21;;;;;;;;;;;;;;;-145.93;100.00;63033.56;5112610;28;20390;-76
2021/08/17 10:26:47;;;;;;;;;;;;;;;-145.93;100.00;63033.56;5092120;28;19924;-76
2021/08/17 10:29:27;;;;;;;;;;;;;;;-145.93;100.00;63033.56;5092581;28;19932;-76
2021/08/17 10:31:54;;;;;;;;;;;;;;;-145.93;100.00;63033.56;5092741;28;19973;-76
2021/08/17 10:34:35;;;;;;;;;;;;;;;-145.93;100.00;63033.56;5092011;28;20374;-75
2021/08/17 10:37:19;;;;;;;;;;;;;;;-145.93;100.00;63033.56;5092356;28;19924;-76
2021/08/17 10:39:46;;;;;;;;;;;;;;;-145.93;100.00;63033.56;5092181;28;19930;-76
2021/08/17 10:42:20;;;;;;;;;;;;;;;-145.93;100.00;63033.56;5092524;28;19925;-76
2021/08/17 10:44:48;;;;;;;;;;;;;;;-145.93;100.00;63033.56;5092268;28;19931;-76
2021/08/17 10:47:29;;;;;;;;;;;;;;;-145.93;100.00;63033.56;5092026;28;19925;-76
2021/08/17 10:49:56;;;;;;;;;;;;;;;-145.93;100.00;63033.56;5092424;28;19930;-76
2021/08/17 10:52:43;;;;;;;;;;;;;;;-145.93;100.00;63033.56;5091854;28;19924;-76
2021/08/17 10:55:33;;;;;;;;;;;;;;;-145.93;100.00;63033.56;5092423;28;19928;-76
2021/08/17 10:58:00;;;;;;;;;;;;;;;-145.93;100.00;63033.56;5092398;28;20026;-76
2021/08/17 11:00:45;;;;;;;;;;;;;;;-145.93;100.00;63033.56;5091962;28;19924;-76
2021/08/17 11:03:14;;;;;;;;;;;;;;;-145.93;100.00;63033.56;5095993;28;19931;-76
2021/08/17 11:05:50;;;;;;;;;;;;;;;-145.93;100.00;63033.56;5096055;28;19928;-76
2021/08/17 11:08:36;;;;;;;;;;;;;;;-145.93;100.00;63033.56;5095478;28;20371;-75
2021/08/17 11:11:04;;;;;;;;;;;;;;;-145.93;100.00;63033.56;5095547;28;20305;-75
2021/08/17 11:13:31;;;;;;;;;;;;;;;-145.93;100.00;63033.56;5095591;28;19924;-76
2021/08/17 11:16:06;;;;;;;;;;;;;;;-145.93;100.00;63033.56;5095502;28;20298;-76
2021/08/17 11:21:25;;;;;;;;;;;;;;;;;;5130733;27;19962;-76
2021/08/17 11:23:51;;;;;;;;;;;;;;;;;;5130797;28;19924;-75
2021/08/17 11:26:17;;;;;;;;;;;;;;;;;;5130492;28;20414;-76
2021/08/17 11:28:44;;;;;;;;;;;;;;;;;;5131072;28;19924;-75
2021/08/17 11:31:10;;;;;;;;;;;;;;;;;;5130755;28;20282;-75
2021/08/17 11:33:36;;;;;;;;;;;;;;;;;;5130498;28;19928;-76
2021/08/17 11:36:02;;;;;;;;;;;;;;;;;;5130858;28;19946;-76
2021/08/17 11:38:29;;;;;;;;;;;;;;;;;;5130285;28;19924;-76
2021/08/17 11:40:55;;;;;;;;;;;;;;;;;;5130767;28;19923;-76
2021/08/17 11:43:21;;;;;;;;;;;;;;;;;;5130222;28;20397;-76
2021/08/17 11:45:48;;;;;;;;;;;;;;;;;;5130438;28;19923;-76
2021/08/17 11:48:14;;;;;;;;;;;;;;;;;;5130626;28;19927;-75
2021/08/17 11:50:40;;;;;;;;;;;;;;;;;;5130338;28;20377;-76
2021/08/17 11:53:07;;;;;;;;;;;;;;;;;;5130266;28;19934;-76
2021/08/17 11:55:33;;;;;;;;;;;;;;;;;;5130172;28;19924;-76
2021/08/17 11:57:59;;;;;;;;;;;;;;;;;;5130097;28;20400;-76
2021/08/17 12:00:25;;;;;;;;;;;;;;;;;;5129839;28;19938;-76
2021/08/17 12:02:52;;;;;;;;;;;;;;;;;;5130388;28;19924;-76
2021/08/17 12:05:18;;;;;;;;;;;;;;;;;;5129722;28;20305;-76
2021/08/17 12:07:44;;;;;;;;;;;;;;;;;;5130313;28;19992;-76
2021/08/17 12:10:11;;;;;;;;;;;;;;;;;;5129884;28;19924;-76
2021/08/17 12:12:37;;;;;;;;;;;;;;;;;;5129995;28;19928;-76
2021/08/17 12:15:03;;;;;;;;;;;;;;;;;;5129783;28;20289;-76
2021/08/17 12:17:30;;;;;;;;;;;;;;;;;;5129585;28;19923;-76
2021/08/17 12:19:56;;;;;;;;;;;;;;;;;;5138035;27;19923;-76
2021/08/17 12:22:22;;;;;;;;;;;;;;;;;;5150104;27;20373;-76
2021/08/17 12:24:48;;;;;;;;;;;;;;;;;;5150381;27;19923;-76
2021/08/17 12:27:15;;;;;;;;;;;;;;;;;;5150496;27;19923;-76
2021/08/17 12:29:41;;;;;;;;;;;;;;;;;;5150303;27;20369;-76
2021/08/17 12:32:07;;;;;;;;;;;;;;;;;;5140197;27;20017;-76
2021/08/17 12:34:34;;;;;;;;;;;;;;;;;;5136254;27;19923;-77
2021/08/17 12:37:00;;;;;;;;;;;;;;;;;;5136337;27;20293;-76
2021/08/17 12:39:28;;;;;;;;;;;;;;;;;;5135948;27;19923;-76
2021/08/17 12:41:54;;;;;;;;;;;;;;;;;;5136150;27;20004;-76
2021/08/17 12:44:21;;;;;;;;;;;;;;;;;;5136142;27;19930;-74